John F Kennedy International Airport
KJFK : now visible

Airfield :











YOU CAN JOIN US ON...

 
LOGIN :

Register | Disclaimer

   EN    FR    IT 

 









Legend :    VFR   Marginal VFR   IFR   Intensive IFR   Very Intensive IFR
Visi :
Ceiling :
>= 8 km
>= 3000ft
5 to 8 km
1000 to 3000 ft
1500m to 5 km
500 to 1000 ft
800 to 1500m
200 to 500 ft
< 800m
< 200 ft
Symbols :   Thunderstorms  Fog  Heavy snow  Heavy precipitations  Wind > 20 kt






- Airport Elevation : 13 ft
- IATA code : JFK


KJFK - John F Kennedy International

CURRENT METAR :
  • 232351Z 20003KT 10SM OVC011 17/16 A3010 RMK AO2 SLP191 T01720161 10200 20172 56012 $

EXPIRED METARs :
  • 232343Z 17004KT 10SM OVC011 18/16 A3010 RMK AO2 T01780161 $
  • 232251Z 13003KT 10SM OVC009 18/16 A3011 RMK AO2 SLP195 T01780156 $
  • 232151Z 13007KT 10SM OVC009 18/16 A3011 RMK AO2 SLP197 T01780156 $

TAF KJFK
Valid from the 24 at 00:00 until the 25 at 06:00 UTC


232321Z 2400/2506 14008KT P6SM OVC009
FM240200 18005KT P6SM SCT005 OVC009
FM240700 21005KT 3SM -DZ BR OVC005
TEMPO 2407/2411 2SM -DZ BR
FM241500 24008KT P6SM SCT012 BKN020
FM241900 28006KT P6SM BKN035
FM242100 32008G18KT P6SM BKN040
FM250100 34010G16KT P6SM SCT090
KZNY FIR / North America



MET'MAP, your aeronautical weather chart ! - Copyright ORBIFLY December 2007 - Disclaimer

ORBIFLY MET'MAP TEAM :

Programming & Development : Alexandra Zaïnal
Concept & original design : Baudouin d'Aumeries
Assistance for programming : Marc-Olivier Méhu
Technical & hardware support : Manuel Goepfert

Contact : metmap@orbifly.com




SOURCES & CREDITS :

   NOAA       Earth
Advisory